sensor_id;sensor_type;location;lat;lon;timestamp;pressure;altitude;pressure_sealevel;temperature;humidity
29331;BME280;16331;52.528;13.342;2023-03-13T00:00:47;86939.13;;;6.91;100.00
29331;BME280;16331;52.528;13.342;2023-03-13T00:03:13;86939.88;;;6.92;100.00
29331;BME280;16331;52.528;13.342;2023-03-13T00:05:40;86244.31;;;6.97;100.00
29331;BME280;16331;52.528;13.342;2023-03-13T00:08:06;85903.34;;;7.04;100.00
29331;BME280;16331;52.528;13.342;2023-03-13T00:10:37;87674.78;;;7.12;100.00
29331;BME280;16331;52.528;13.342;2023-03-13T00:13:05;89794.97;;;7.18;100.00
29331;BME280;16331;52.528;13.342;2023-03-13T00:15:31;91194.66;;;7.12;100.00
29331;BME280;16331;52.528;13.342;2023-03-13T00:17:57;91547.66;;;7.13;100.00
29331;BME280;16331;52.528;13.342;2023-03-13T00:20:23;90843.34;;;7.13;100.00
29331;BME280;16331;52.528;13.342;2023-03-13T00:22:50;89084.66;;;7.14;100.00
29331;BME280;16331;52.528;13.342;2023-03-13T00:25:17;89442.16;;;7.17;100.00
29331;BME280;16331;52.528;13.342;2023-03-13T00:27:44;87692.53;;;7.24;100.00
29331;BME280;16331;52.528;13.342;2023-03-13T00:30:10;87340.66;;;7.24;100.00
29331;BME280;16331;52.528;13.342;2023-03-13T00:32:42;87356.03;;;7.34;100.00
29331;BME280;16331;52.528;13.342;2023-03-13T00:35:09;88401.00;;;7.27;100.00
29331;BME280;16331;52.528;13.342;2023-03-13T00:37:35;86998.03;;;7.30;100.00
29331;BME280;16331;52.528;13.342;2023-03-13T00:40:01;85245.28;;;7.34;100.00
29331;BME280;16331;52.528;13.342;2023-03-13T00:42:29;84188.16;;;7.32;100.00
29331;BME280;16331;52.528;13.342;2023-03-13T00:44:55;84201.50;;;7.42;100.00
29331;BME280;16331;52.528;13.342;2023-03-13T00:47:22;83845.47;;;7.38;100.00
29331;BME280;16331;52.528;13.342;2023-03-13T00:49:48;83848.44;;;7.41;100.00
29331;BME280;16331;52.528;13.342;2023-03-13T00:52:15;84197.81;;;7.39;100.00
29331;BME280;16331;52.528;13.342;2023-03-13T00:54:41;84540.50;;;7.33;100.00
29331;BME280;16331;52.528;13.342;2023-03-13T00:57:08;83483.59;;;7.31;100.00
29331;BME280;16331;52.528;13.342;2023-03-13T00:59:34;82425.66;;;7.29;100.00
29331;BME280;16331;52.528;13.342;2023-03-13T01:02:00;82431.50;;;7.33;100.00
29331;BME280;16331;52.528;13.342;2023-03-13T01:04:27;83837.34;;;7.33;100.00
29331;BME280;16331;52.528;13.342;2023-03-13T01:06:54;84184.44;;;7.30;100.00
29331;BME280;16331;52.528;13.342;2023-03-13T01:09:20;85588.69;;;7.28;100.00
29331;BME280;16331;52.528;13.342;2023-03-13T01:11:46;85239.25;;;7.30;100.00
29331;BME280;16331;52.528;13.342;2023-03-13T01:14:15;86659.94;;;7.39;100.00
29331;BME280;16331;52.528;13.342;2023-03-13T01:16:42;88415.03;;;7.36;100.00
29331;BME280;16331;52.528;13.342;2023-03-13T01:19:12;89817.88;;;7.32;100.00
29331;BME280;16331;52.528;13.342;2023-03-13T01:21:39;91243.53;;;7.43;100.00
29331;BME280;16331;52.528;13.342;2023-03-13T01:24:06;94421.09;;;7.46;100.00
29331;BME280;16331;52.528;13.342;2023-03-13T01:26:32;97935.22;;;7.38;100.00
29331;BME280;16331;52.528;13.342;2023-03-13T01:28:59;97225.03;;;7.35;100.00
29331;BME280;16331;52.528;13.342;2023-03-13T01:31:29;98671.53;;;7.55;100.00
29331;BME280;16331;52.528;13.342;2023-03-13T01:33:58;103245.06;;;7.44;100.00
29331;BME280;16331;52.528;13.342;2023-03-13T01:36:25;103591.38;;;7.39;100.00
29331;BME280;16331;52.528;13.342;2023-03-13T01:38:55;105723.69;;;7.45;100.00
29331;BME280;16331;52.528;13.342;2023-03-13T01:41:23;105729.25;;;7.48;100.00
29331;BME280;16331;52.528;13.342;2023-03-13T01:43:50;106788.16;;;7.47;100.00
29331;BME280;16331;52.528;13.342;2023-03-13T01:46:17;109268.56;;;7.48;100.00
29331;BME280;16331;52.528;13.342;2023-03-13T01:49:15;109258.09;;;7.42;100.00
29331;BME280;16331;52.528;13.342;2023-03-13T01:51:58;109607.47;;;7.39;100.00
29331;BME280;16331;52.528;13.342;2023-03-13T01:54:45;108906.78;;;7.44;100.00
29331;BME280;16331;52.528;13.342;2023-03-13T01:57:24;109618.97;;;7.46;100.00
29331;BME280;16331;52.528;13.342;2023-03-13T02:00:14;111397.34;;;7.49;100.00
29331;BME280;16331;52.528;13.342;2023-03-13T02:02:47;114586.69;;;7.48;100.00
29331;BME280;16331;52.528;13.342;2023-03-13T02:05:17;114578.72;;;7.44;100.00
29331;BME280;16331;52.528;13.342;2023-03-13T02:10:41;119560.84;;;7.50;100.00
29331;BME280;16331;52.528;13.342;2023-03-13T02:13:11;120264.09;;;7.47;100.00
29331;BME280;16331;52.528;13.342;2023-03-13T02:15:40;119911.91;;;7.48;100.00
29331;BME280;16331;52.528;13.342;2023-03-13T02:18:07;120968.47;;;7.44;100.00
29331;BME280;16331;52.528;13.342;2023-03-13T02:20:33;121322.78;;;7.43;100.00
29331;BME280;16331;52.528;13.342;2023-03-13T02:23:00;123110.94;;;7.48;100.00
29331;BME280;16331;52.528;13.342;2023-03-13T02:25:48;124520.66;;;7.42;100.00
29331;BME280;16331;52.528;13.342;2023-03-13T02:28:22;121685.63;;;7.47;100.00
29331;BME280;16331;52.528;13.342;2023-03-13T02:30:54;123462.25;;;7.46;100.00
29331;BME280;16331;52.528;13.342;2023-03-13T02:33:22;124530.41;;;7.47;100.00
29331;BME280;16331;52.528;13.342;2023-03-13T02:35:52;125586.84;;;7.42;100.00
29331;BME280;16331;52.528;13.342;2023-03-13T02:38:24;124177.91;;;7.48;100.00
29331;BME280;16331;52.528;13.342;2023-03-13T02:40:52;125967.91;;;7.53;100.00
29331;BME280;16331;52.528;13.342;2023-03-13T02:43:20;128817.59;;;7.54;100.00
29331;BME280;16331;52.528;13.342;2023-03-13T02:46:11;130267.63;;;7.65;100.00
29331;BME280;16331;52.528;13.342;2023-03-13T02:48:44;134896.00;;;7.61;100.00
29331;BME280;16331;52.528;13.342;2023-03-13T02:51:38;138130.84;;;7.70;100.00
29331;BME280;16331;52.528;13.342;2023-03-13T02:54:11;139172.53;;;7.58;100.00
29331;BME280;16331;52.528;13.342;2023-03-13T02:56:42;136341.50;;;7.69;100.00
29331;BME280;16331;52.528;13.342;2023-03-13T02:59:08;140985.13;;;7.68;100.00
29331;BME280;16331;52.528;13.342;2023-03-13T03:01:34;141347.53;;;7.70;100.00
29331;BME280;16331;52.528;13.342;2023-03-13T03:04:00;141346.34;;;7.70;100.00
29331;BME280;16331;52.528;13.342;2023-03-13T03:06:26;142421.66;;;7.71;100.00
29331;BME280;16331;52.528;13.342;2023-03-13T03:08:52;144957.75;;;7.83;100.00
29331;BME280;16331;52.528;13.342;2023-03-13T03:11:19;149622.69;;;7.86;100.00
29331;BME280;16331;52.528;13.342;2023-03-13T03:13:46;151489.75;;;7.79;100.00
29331;BME280;16331;52.528;13.342;2023-03-13T03:16:13;152439.59;;;7.89;100.00
29331;BME280;16331;52.528;13.342;2023-03-13T03:18:46;153081.22;;;7.81;100.00
29331;BME280;16331;52.528;13.342;2023-03-13T03:21:12;151208.13;;;7.87;100.00
29331;BME280;16331;52.528;13.342;2023-03-13T03:23:38;151058.28;;;7.87;100.00
29331;BME280;16331;52.528;13.342;2023-03-13T03:26:05;151451.09;;;8.00;100.00
29331;BME280;16331;52.528;13.342;2023-03-13T03:28:32;153457.72;;;7.95;100.00
29331;BME280;16331;52.528;13.342;2023-03-13T03:31:04;151938.84;;;7.91;100.00
29331;BME280;16331;52.528;13.342;2023-03-13T03:33:30;147851.19;;;7.94;100.00
29331;BME280;16331;52.528;13.342;2023-03-13T03:36:04;144258.06;;;7.90;100.00
29331;BME280;16331;52.528;13.342;2023-03-13T03:38:31;140666.69;;;7.84;100.00
29331;BME280;16331;52.528;13.342;2023-03-13T03:40:58;134606.94;;;7.90;100.00
29331;BME280;16331;52.528;13.342;2023-03-13T03:43:24;132473.59;;;7.94;100.00
29331;BME280;16331;52.528;13.342;2023-03-13T03:45:51;131752.00;;;7.90;100.00
29331;BME280;16331;52.528;13.342;2023-03-13T03:48:18;130680.84;;;7.90;100.00
29331;BME280;16331;52.528;13.342;2023-03-13T03:50:44;128901.56;;;7.91;100.00
29331;BME280;16331;52.528;13.342;2023-03-13T03:53:10;126752.53;;;7.86;100.00
29331;BME280;16331;52.528;13.342;2023-03-13T03:55:36;126058.88;;;7.95;100.00
29331;BME280;16331;52.528;13.342;2023-03-13T03:58:02;128193.22;;;7.93;100.00
29331;BME280;16331;52.528;13.342;2023-03-13T04:00:28;130697.84;;;7.97;100.00
29331;BME280;16331;52.528;13.342;2023-03-13T04:02:55;132131.72;;;8.00;100.00
29331;BME280;16331;52.528;13.342;2023-03-13T04:05:23;135357.44;;;8.06;100.00
29331;BME280;16331;52.528;13.342;2023-03-13T04:07:52;136778.13;;;8.02;100.00
29331;BME280;16331;52.528;13.342;2023-03-13T04:10:18;138931.03;;;8.06;100.00
29331;BME280;16331;52.528;13.342;2023-03-13T04:12:46;140015.97;;;8.11;100.00
29331;BME280;16331;52.528;13.342;2023-03-13T04:15:13;137488.06;;;8.00;100.00
29331;BME280;16331;52.528;13.342;2023-03-13T04:17:39;134270.91;;;7.99;100.00
29331;BME280;16331;52.528;13.342;2023-03-13T04:20:06;131774.91;;;8.00;100.00
29331;BME280;16331;52.528;13.342;2023-03-13T04:22:32;128207.72;;;8.00;100.00
29331;BME280;16331;52.528;13.342;2023-03-13T04:24:59;129279.38;;;8.01;100.00
29331;BME280;16331;52.528;13.342;2023-03-13T04:27:25;127498.28;;;8.01;100.00
29331;BME280;16331;52.528;13.342;2023-03-13T04:29:51;128583.13;;;8.08;100.00
29331;BME280;16331;52.528;13.342;2023-03-13T04:32:18;130719.44;;;8.07;100.00
29331;BME280;16331;52.528;13.342;2023-03-13T04:34:44;131067.09;;;8.03;100.00
29331;BME280;16331;52.528;13.342;2023-03-13T04:37:10;130720.59;;;8.07;100.00
29331;BME280;16331;52.528;13.342;2023-03-13T04:39:36;131782.88;;;8.04;100.00
29331;BME280;16331;52.528;13.342;2023-03-13T04:42:02;131085.31;;;8.11;100.00
29331;BME280;16331;52.528;13.342;2023-03-13T04:44:28;132151.19;;;8.09;100.00
29331;BME280;16331;52.528;13.342;2023-03-13T04:46:54;130362.75;;;8.07;100.00
29331;BME280;16331;52.528;13.342;2023-03-13T04:49:20;129283.88;;;8.03;100.00
29331;BME280;16331;52.528;13.342;2023-03-13T04:51:46;125714.75;;;8.00;100.00
29331;BME280;16331;52.528;13.342;2023-03-13T04:54:13;123595.50;;;8.08;100.00
29331;BME280;16331;52.528;13.342;2023-03-13T04:56:40;124670.25;;;8.11;100.00
29331;BME280;16331;52.528;13.342;2023-03-13T04:59:06;128226.63;;;8.08;100.00
29331;BME280;16331;52.528;13.342;2023-03-13T05:01:32;126446.94;;;8.09;100.00
29331;BME280;16331;52.528;13.342;2023-03-13T05:03:58;125007.91;;;8.03;100.00
29331;BME280;16331;52.528;13.342;2023-03-13T05:06:26;123579.41;;;8.01;100.00
29331;BME280;16331;52.528;13.342;2023-03-13T05:08:52;121805.38;;;8.03;100.00
29331;BME280;16331;52.528;13.342;2023-03-13T05:11:18;119666.00;;;8.01;100.00
29331;BME280;16331;52.528;13.342;2023-03-13T05:13:46;117891.69;;;8.02;100.00
29331;BME280;16331;52.528;13.342;2023-03-13T05:16:12;116115.16;;;8.02;100.00
29331;BME280;16331;52.528;13.342;2023-03-13T05:18:38;114338.56;;;8.02;100.00
29331;BME280;16331;52.528;13.342;2023-03-13T05:21:05;112564.81;;;8.02;100.00
29331;BME280;16331;52.528;13.342;2023-03-13T05:23:32;110083.63;;;8.03;100.00
29331;BME280;16331;52.528;13.342;2023-03-13T05:25:59;107239.44;;;7.99;100.00
29331;BME280;16331;52.528;13.342;2023-03-13T05:28:26;102991.38;;;7.99;100.00
29331;BME280;16331;52.528;13.342;2023-03-13T05:30:53;100166.84;;;8.02;100.00
29331;BME280;16331;52.528;13.342;2023-03-13T05:33:19;99106.19;;;8.02;100.00
29331;BME280;16331;52.528;13.342;2023-03-13T05:35:46;95917.81;;;7.97;100.00
29331;BME280;16331;52.528;13.342;2023-03-13T05:38:13;93801.31;;;7.98;100.00
29331;BME280;16331;52.528;13.342;2023-03-13T05:40:39;90282.53;;;8.04;100.00
29331;BME280;16331;52.528;13.342;2023-03-13T05:43:05;89927.56;;;8.02;100.00
29331;BME280;16331;52.528;13.342;2023-03-13T05:45:33;88513.75;;;8.00;100.00
29331;BME280;16331;52.528;13.342;2023-03-13T05:48:01;85693.47;;;7.98;100.00
29331;BME280;16331;52.528;13.342;2023-03-13T05:50:27;84992.34;;;8.00;100.00
29331;BME280;16331;52.528;13.342;2023-03-13T05:52:53;83228.16;;;7.97;100.00
29331;BME280;16331;52.528;13.342;2023-03-13T05:55:20;82522.34;;;7.96;100.00
29331;BME280;16331;52.528;13.342;2023-03-13T05:57:47;80418.09;;;8.00;100.00
29331;BME280;16331;52.528;13.342;2023-03-13T06:00:16;80065.84;;;7.99;100.00
29331;BME280;16331;52.528;13.342;2023-03-13T06:02:43;79354.44;;;7.93;100.00
29331;BME280;16331;52.528;13.342;2023-03-13T06:05:10;77601.88;;;7.96;100.00
29331;BME280;16331;52.528;13.342;2023-03-13T06:07:36;76553.69;;;8.00;100.00
29331;BME280;16331;52.528;13.342;2023-03-13T06:10:04;76910.31;;;8.04;100.00
29331;BME280;16331;52.528;13.342;2023-03-13T06:12:30;77960.06;;;8.01;100.00
29331;BME280;16331;52.528;13.342;2023-03-13T06:14:57;77260.88;;;8.04;100.00
29331;BME280;16331;52.528;13.342;2023-03-13T06:17:23;77960.06;;;8.01;100.00
29331;BME280;16331;52.528;13.342;2023-03-13T06:19:50;77278.63;;;8.17;100.00
29331;BME280;16331;52.528;13.342;2023-03-13T06:22:17;79379.69;;;8.11;100.00
29331;BME280;16331;52.528;13.342;2023-03-13T06:24:43;79720.66;;;8.04;100.00
29331;BME280;16331;52.528;13.342;2023-03-13T06:27:11;77968.31;;;8.07;100.00
29331;BME280;16331;52.528;13.342;2023-03-13T06:29:42;76911.00;;;8.05;100.00
29331;BME280;16331;52.528;13.342;2023-03-13T06:32:08;75860.09;;;8.07;100.00
29331;BME280;16331;52.528;13.342;2023-03-13T06:34:35;75855.41;;;8.03;100.00
29331;BME280;16331;52.528;13.342;2023-03-13T06:37:01;74454.50;;;8.06;100.00
29331;BME280;16331;52.528;13.342;2023-03-13T06:39:28;74121.88;;;8.20;100.00
29331;BME280;16331;52.528;13.342;2023-03-13T06:41:54;76236.25;;;8.25;100.00
29331;BME280;16331;52.528;13.342;2023-03-13T06:44:20;76932.75;;;8.21;100.00
29331;BME280;16331;52.528;13.342;2023-03-13T06:46:46;77994.53;;;8.26;100.00
29331;BME280;16331;52.528;13.342;2023-03-13T06:49:12;78344.66;;;8.25;100.00
29331;BME280;16331;52.528;13.342;2023-03-13T06:51:39;77626.59;;;8.14;100.00
29331;BME280;16331;52.528;13.342;2023-03-13T06:54:05;74845.28;;;8.36;100.00
29331;BME280;16331;52.528;13.342;2023-03-13T06:56:31;78025.53;;;8.49;100.00
29331;BME280;16331;52.528;13.342;2023-03-13T06:58:57;81883.16;;;8.40;100.00
29331;BME280;16331;52.528;13.342;2023-03-13T07:01:23;82229.34;;;8.36;100.00
29331;BME280;16331;52.528;13.342;2023-03-13T07:03:49;80813.19;;;8.30;100.00
29331;BME280;16331;52.528;13.342;2023-03-13T07:06:17;79760.78;;;8.32;100.00
29331;BME280;16331;52.528;13.342;2023-03-13T07:08:43;78351.56;;;8.30;100.00
29331;BME280;16331;52.528;13.342;2023-03-13T07:11:11;77295.72;;;8.29;100.00
29331;BME280;16331;52.528;13.342;2023-03-13T07:13:38;76243.66;;;8.31;100.00
29331;BME280;16331;52.528;13.342;2023-03-13T07:16:06;75199.84;;;8.38;100.00
29331;BME280;16331;52.528;13.342;2023-03-13T07:18:34;74137.69;;;8.32;100.00
29331;BME280;16331;52.528;13.342;2023-03-13T07:21:02;72043.16;;;8.41;100.00
29331;BME280;16331;52.528;13.342;2023-03-13T07:23:33;72745.78;;;8.41;100.00
29331;BME280;16331;52.528;13.342;2023-03-13T07:26:05;72751.56;;;8.46;100.00
29331;BME280;16331;52.528;13.342;2023-03-13T07:28:32;73096.81;;;8.41;100.00
29331;BME280;16331;52.528;13.342;2023-03-13T07:31:10;71348.28;;;8.46;100.00
29331;BME280;16331;52.528;13.342;2023-03-13T07:33:38;70998.66;;;8.47;100.00
29331;BME280;16331;52.528;13.342;2023-03-13T07:36:05;69243.47;;;8.46;100.00
29331;BME280;16331;52.528;13.342;2023-03-13T07:38:32;68201.25;;;8.54;100.00
29331;BME280;16331;52.528;13.342;2023-03-13T07:40:58;68560.44;;;8.61;100.00
29331;BME280;16331;52.528;13.342;2023-03-13T07:43:25;69976.00;;;8.71;100.00
29331;BME280;16331;52.528;13.342;2023-03-13T07:46:05;71016.94;;;8.62;100.00
29331;BME280;16331;52.528;13.342;2023-03-13T07:48:37;70313.19;;;8.60;100.00
29331;BME280;16331;52.528;13.342;2023-03-13T07:51:06;68565.31;;;8.65;100.00
29331;BME280;16331;52.528;13.342;2023-03-13T07:53:34;66828.16;;;8.79;100.00
29331;BME280;16331;52.528;13.342;2023-03-13T07:56:05;66828.16;;;8.79;100.00
29331;BME280;16331;52.528;13.342;2023-03-13T07:58:34;67184.19;;;8.83;100.00
29331;BME280;16331;52.528;13.342;2023-03-13T08:01:08;67184.78;;;8.84;100.00
29331;BME280;16331;52.528;13.342;2023-03-13T08:03:35;67537.31;;;8.86;100.00
29331;BME280;16331;52.528;13.342;2023-03-13T08:06:04;67538.53;;;8.87;100.00
29331;BME280;16331;52.528;13.342;2023-03-13T08:08:31;65782.88;;;8.85;100.00
29331;BME280;16331;52.528;13.342;2023-03-13T08:11:08;63684.69;;;8.89;100.00
29331;BME280;16331;52.528;13.342;2023-03-13T08:13:35;62630.97;;;8.86;100.00
29331;BME280;16331;52.528;13.342;2023-03-13T08:16:10;60876.94;;;8.83;100.00
29331;BME280;16331;52.528;13.342;2023-03-13T08:18:40;58777.81;;;8.83;100.00
29331;BME280;16331;52.528;13.342;2023-03-13T08:21:12;56330.41;;;8.84;100.00
29331;BME280;16331;52.528;13.342;2023-03-13T08:23:40;54241.88;;;8.93;100.00
29331;BME280;16331;52.528;13.342;2023-03-13T08:26:09;53886.16;;;8.86;100.00
29331;BME280;16331;52.528;13.342;2023-03-13T08:28:36;52144.16;;;8.91;100.00
29331;BME280;16331;52.528;13.342;2023-03-13T08:31:11;50395.91;;;8.88;100.00
29331;BME280;16331;52.528;13.342;2023-03-13T08:33:38;48653.19;;;8.90;100.00
29331;BME280;16331;52.528;13.342;2023-03-13T08:38:38;46566.00;;;8.96;100.00
29331;BME280;16331;52.528;13.342;2023-03-13T08:41:07;45169.66;;;8.93;100.00
29331;BME280;16331;52.528;13.342;2023-03-13T08:43:34;43786.88;;;9.07;100.00
29331;BME280;16331;52.528;13.342;2023-03-13T08:46:02;43782.88;;;9.02;100.00
29331;BME280;16331;52.528;13.342;2023-03-13T08:48:28;43090.53;;;9.07;100.00
29331;BME280;16331;52.528;13.342;2023-03-13T08:51:06;42744.97;;;9.11;100.00
29331;BME280;16331;52.528;13.342;2023-03-13T08:53:34;42746.94;;;9.13;100.00
29331;BME280;16331;52.528;13.342;2023-03-13T08:56:01;42746.53;;;9.13;100.00
29331;BME280;16331;52.528;13.342;2023-03-13T08:58:29;42749.28;;;9.16;100.00
29331;BME280;16331;52.528;13.342;2023-03-13T09:01:03;42753.63;;;9.22;100.00
29331;BME280;16331;52.528;13.342;2023-03-13T09:03:29;42754.00;;;9.22;100.00
29331;BME280;16331;52.528;13.342;2023-03-13T09:05:59;43106.41;;;9.27;100.00
29331;BME280;16331;52.528;13.342;2023-03-13T09:08:27;43809.84;;;9.35;100.00
29331;BME280;16331;52.528;13.342;2023-03-13T09:11:00;44160.88;;;9.38;100.00
29331;BME280;16331;52.528;13.342;2023-03-13T09:13:29;45209.84;;;9.42;100.00
29331;BME280;16331;52.528;13.342;2023-03-13T09:16:07;45916.69;;;9.53;100.00
29331;BME280;16331;52.528;13.342;2023-03-13T09:18:35;48016.00;;;9.59;100.00
29331;BME280;16331;52.528;13.342;2023-03-13T09:21:02;49762.19;;;9.59;100.00
29331;BME280;16331;52.528;13.342;2023-03-13T09:23:30;51511.19;;;9.61;100.00
29331;BME280;16331;52.528;13.342;2023-03-13T09:25:57;51863.06;;;9.63;100.00
29331;BME280;16331;52.528;13.342;2023-03-13T09:28:25;53265.03;;;9.67;100.00
29331;BME280;16331;52.528;13.342;2023-03-13T09:30:52;53263.13;;;9.65;100.00
29331;BME280;16331;52.528;13.342;2023-03-13T09:33:19;53624.97;;;9.77;100.00
29331;BME280;16331;52.528;13.342;2023-03-13T09:35:47;55026.59;;;9.79;100.00
29331;BME280;16331;52.528;13.342;2023-03-13T09:38:19;56068.16;;;9.71;100.00
29331;BME280;16331;52.528;13.342;2023-03-13T09:40:48;55720.13;;;9.73;100.00
29331;BME280;16331;52.528;13.342;2023-03-13T09:43:40;55019.13;;;9.72;100.00
29331;BME280;16331;52.528;13.342;2023-03-13T09:46:54;52931.59;;;9.84;100.00
29331;BME280;16331;52.528;13.342;2023-03-13T09:52:03;52239.16;;;9.91;100.00
29331;BME280;16331;52.528;13.342;2023-03-13T09:57:24;53647.25;;;10.00;100.00
29331;BME280;16331;52.528;13.342;2023-03-13T09:59:59;54348.25;;;10.01;100.00
29331;BME280;16331;52.528;13.342;2023-03-13T10:02:34;55407.56;;;10.10;100.00
29331;BME280;16331;52.528;13.342;2023-03-13T10:05:13;57158.53;;;10.10;100.00
29331;BME280;16331;52.528;13.342;2023-03-13T10:07:43;57867.22;;;10.17;100.00
29331;BME280;16331;52.528;13.342;2023-03-13T10:10:37;60678.91;;;10.23;100.00
29331;BME280;16331;52.528;13.342;2023-03-13T10:13:19;60678.38;;;10.23;100.00
29331;BME280;16331;52.528;13.342;2023-03-13T10:15:56;60329.72;;;10.25;100.00
29331;BME280;16331;52.528;13.342;2023-03-13T10:18:24;59286.53;;;10.34;100.00
29331;BME280;16331;52.528;13.342;2023-03-13T10:20:59;59991.31;;;10.37;100.00
29331;BME280;16331;52.528;13.342;2023-03-13T10:23:59;58946.91;;;10.44;100.00
29331;BME280;16331;52.528;13.342;2023-03-13T10:26:34;59654.41;;;10.50;100.00
29331;BME280;16331;52.528;13.342;2023-03-13T10:29:24;62120.28;;;10.58;100.00
29331;BME280;16331;52.528;13.342;2023-03-13T10:32:02;64952.81;;;10.77;100.00
29331;BME280;16331;52.528;13.342;2023-03-13T10:34:43;67405.16;;;10.69;100.00
29331;BME280;16331;52.528;13.342;2023-03-13T10:37:14;69872.22;;;10.72;100.00
29331;BME280;16331;52.528;13.342;2023-03-13T10:39:40;69182.91;;;10.84;100.00
29331;BME280;16331;52.528;13.342;2023-03-13T10:42:26;72370.16;;;10.97;100.00
29331;BME280;16331;52.528;13.342;2023-03-13T10:44:58;78743.88;;;11.14;100.00
29331;BME280;16331;52.528;13.342;2023-03-13T10:47:33;84792.44;;;11.40;100.00
29331;BME280;16331;52.528;13.342;2023-03-13T10:50:02;95083.22;;;11.46;100.00
29331;BME280;16331;52.528;13.342;2023-03-13T10:52:34;96869.16;;;11.52;100.00
29331;BME280;16331;52.528;13.342;2023-03-13T10:55:12;99022.38;;;11.64;100.00
29331;BME280;16331;52.528;13.342;2023-03-13T10:57:42;112260.34;;;11.94;100.00
29331;BME280;16331;52.528;13.342;2023-03-13T11:00:37;129824.47;;;12.04;100.00
29331;BME280;16331;52.528;13.342;2023-03-13T11:03:17;137700.28;;;11.91;100.00
29331;BME280;16331;52.528;13.342;2023-03-13T11:05:53;133049.56;;;12.01;100.00
29331;BME280;16331;52.528;13.342;2023-03-13T11:08:33;135958.88;;;12.15;100.00
29331;BME280;16331;52.528;13.342;2023-03-13T11:11:14;143526.69;;;12.18;100.00
29331;BME280;16331;52.528;13.342;2023-03-13T11:13:43;159133.91;;;12.47;100.00
29331;BME280;16331;52.528;13.342;2023-03-13T11:16:23;159187.47;;;12.66;100.00
29331;BME280;16331;52.528;13.342;2023-03-13T11:22:12;159232.84;;;12.83;100.00
29331;BME280;16331;52.528;13.342;2023-03-13T11:25:01;159293.38;;;13.05;100.00
29331;BME280;16331;52.528;13.342;2023-03-13T11:27:39;159296.16;;;13.06;100.00
29331;BME280;16331;52.528;13.342;2023-03-13T11:33:35;159340.13;;;13.22;100.00
29331;BME280;16331;52.528;13.342;2023-03-13T11:36:48;159327.75;;;13.18;100.00
29331;BME280;16331;52.528;13.342;2023-03-13T11:47:42;159439.19;;;13.58;100.00
29331;BME280;16331;52.528;13.342;2023-03-13T11:53:06;159375.88;;;13.35;100.00
29331;BME280;16331;52.528;13.342;2023-03-13T11:56:13;159367.63;;;13.32;100.00
29331;BME280;16331;52.528;13.342;2023-03-13T11:58:53;159375.88;;;13.35;100.00
29331;BME280;16331;52.528;13.342;2023-03-13T12:01:33;159430.94;;;13.55;100.00
29331;BME280;16331;52.528;13.342;2023-03-13T12:09:38;159476.28;;;13.72;100.00
29331;BME280;16331;52.528;13.342;2023-03-13T12:14:46;159630.47;;;14.28;100.00
29331;BME280;16331;52.528;13.342;2023-03-13T12:17:34;159590.50;;;14.13;100.00
29331;BME280;16331;52.528;13.342;2023-03-13T12:20:16;159637.38;;;14.30;100.00
29331;BME280;16331;52.528;13.342;2023-03-13T12:22:53;159667.66;;;14.41;100.00
29331;BME280;16331;52.528;13.342;2023-03-13T12:25:24;159637.38;;;14.30;100.00
29331;BME280;16331;52.528;13.342;2023-03-13T12:28:01;159651.16;;;14.35;100.00
29331;BME280;16331;52.528;13.342;2023-03-13T12:30:44;159625.00;;;14.26;100.00
29331;BME280;16331;52.528;13.342;2023-03-13T12:41:43;159939.03;;;15.40;100.00
29331;BME280;16331;52.528;13.342;2023-03-13T12:44:17;159879.75;;;15.19;100.00
29331;BME280;16331;52.528;13.342;2023-03-13T12:47:06;159864.56;;;15.13;100.00
29331;BME280;16331;52.528;13.342;2023-03-13T12:52:57;160463.06;;;17.31;100.00
29331;BME280;16331;52.528;13.342;2023-03-13T12:56:05;160457.53;;;17.29;100.00
29331;BME280;16331;52.528;13.342;2023-03-13T12:58:57;160659.13;;;18.02;100.00
29331;BME280;16331;52.528;13.342;2023-03-13T13:01:54;160574.94;;;17.72;100.00
29331;BME280;16331;52.528;13.342;2023-03-13T13:04:28;160666.06;;;18.05;100.00
29331;BME280;16331;52.528;13.342;2023-03-13T13:07:19;160527.97;;;17.55;100.00
29331;BME280;16331;52.528;13.342;2023-03-13T13:10:13;160608.06;;;17.84;100.00
29331;BME280;16331;52.528;13.342;2023-03-13T13:15:47;160775.22;;;18.44;100.00
29331;BME280;16331;52.528;13.342;2023-03-13T13:18:33;160612.19;;;17.85;100.00
29331;BME280;16331;52.528;13.342;2023-03-13T13:21:19;160496.19;;;17.43;100.00
29331;BME280;16331;52.528;13.342;2023-03-13T13:30:48;160961.78;;;19.12;100.00
29331;BME280;16331;52.528;13.342;2023-03-13T13:32:51;160983.88;;;19.20;100.00
29331;BME280;16331;52.528;13.342;2023-03-13T13:37:52;160811.13;;;18.57;100.00
29331;BME280;16331;52.528;13.342;2023-03-13T13:40:25;160755.84;;;18.37;100.00
29331;BME280;16331;52.528;13.342;2023-03-13T13:43:02;160576.28;;;17.72;100.00
29331;BME280;16331;52.528;13.342;2023-03-13T13:45:37;160478.28;;;17.37;100.00
29331;BME280;16331;52.528;13.342;2023-03-13T13:48:26;160492.03;;;17.42;100.00
29331;BME280;16331;52.528;13.342;2023-03-13T13:57:22;160610.81;;;17.85;100.00
29331;BME280;16331;52.528;13.342;2023-03-13T13:59:52;160601.19;;;17.81;100.00
29331;BME280;16331;52.528;13.342;2023-03-13T14:02:29;160837.38;;;18.67;100.00
29331;BME280;16331;52.528;13.342;2023-03-13T14:05:05;160710.25;;;18.21;100.00
29331;BME280;16331;52.528;13.342;2023-03-13T14:08:16;160686.75;;;18.12;100.00
29331;BME280;16331;52.528;13.342;2023-03-13T14:13:31;160566.63;;;17.69;100.00